Time;durP1;ratioP1;P1;durP2;ratioP2;P2;SDS_P1;SDS_P2;PMS_P1;PMS_P2;Temp;Humidity;BMP_temperature;BMP_pressure;BME280_temperature;BME280_humidity;BME280_pressure;Samples;Min_cycle;Max_cycle;Signal;HPM_P1;HPM_P2
2021/01/11 00:01:42;;;;;;;1999.90;999.90;;;0.50;99.90;;;;;;5000567;28;20620;-82
2021/01/11 00:04:09;;;;;;;1999.90;999.90;;;0.50;99.90;;;;;;5018189;28;20184;-83
2021/01/11 00:06:42;;;;;;;1999.90;999.90;;;0.50;99.90;;;;;;5017931;28;20166;-83
2021/01/11 00:09:08;;;;;;;1999.90;999.90;;;0.60;99.90;;;;;;5017860;28;20181;-83
2021/01/11 00:11:38;;;;;;;1999.90;999.90;;;0.60;99.90;;;;;;5018545;28;20198;-83
2021/01/11 00:14:05;;;;;;;1999.90;999.90;;;0.60;99.90;;;;;;5017595;28;20201;-82
2021/01/11 00:16:31;;;;;;;1999.90;999.90;;;0.60;99.90;;;;;;5000228;28;20158;-82
2021/01/11 00:18:57;;;;;;;1999.90;999.90;;;0.60;99.90;;;;;;5017776;28;20177;-83
2021/01/11 00:21:23;;;;;;;1999.90;999.90;;;0.70;99.90;;;;;;5018127;28;20166;-83
2021/01/11 00:23:55;;;;;;;1999.90;999.90;;;0.60;99.90;;;;;;5001551;28;20431;-83
2021/01/11 00:26:21;;;;;;;1999.90;999.90;;;0.60;99.90;;;;;;5017973;28;20939;-82
2021/01/11 00:28:47;;;;;;;1999.90;999.90;;;0.50;99.90;;;;;;5017735;28;20174;-83
2021/01/11 00:31:23;;;;;;;1999.90;999.90;;;0.50;99.90;;;;;;5018157;28;20186;-83
2021/01/11 00:33:55;;;;;;;1999.90;999.90;;;0.50;99.90;;;;;;5021737;28;20181;-82
2021/01/11 00:36:21;;;;;;;1999.90;999.90;;;0.50;99.90;;;;;;5004293;28;20170;-83
2021/01/11 00:38:49;;;;;;;1999.90;999.90;;;0.50;99.90;;;;;;5021727;28;20158;-82
2021/01/11 00:41:22;;;;;;;1999.90;999.90;;;0.60;99.90;;;;;;5021195;28;20640;-83
2021/01/11 00:43:49;;;;;;;1999.90;999.90;;;0.60;99.90;;;;;;5021453;28;20150;-83
2021/01/11 00:46:31;;;;;;;1999.90;999.90;;;0.50;99.90;;;;;;5003381;28;20166;-82
2021/01/11 00:48:57;;;;;;;1999.90;999.90;;;0.50;99.90;;;;;;5003380;28;20174;-82
2021/01/11 00:51:24;;;;;;;1999.90;999.90;;;0.50;99.90;;;;;;5022032;28;20205;-82
2021/01/11 00:53:50;;;;;;;1999.90;999.90;;;0.50;99.90;;;;;;5021844;28;20409;-82
2021/01/11 00:56:17;;;;;;;1999.90;999.90;;;0.50;99.90;;;;;;5003137;28;20180;-83
2021/01/11 00:58:44;;;;;;;1999.90;999.90;;;0.50;99.90;;;;;;5021057;28;20409;-82
2021/01/11 01:01:10;;;;;;;1999.90;999.90;;;0.40;99.90;;;;;;5003809;28;20648;-83
2021/01/11 01:03:37;;;;;;;1999.90;999.90;;;0.30;99.90;;;;;;5020839;28;20592;-83
2021/01/11 01:06:11;;;;;;;1999.90;999.90;;;0.30;99.90;;;;;;5020535;28;20197;-83
2021/01/11 01:08:37;;;;;;;1999.90;999.90;;;0.40;99.90;;;;;;5020519;28;20150;-82
2021/01/11 01:11:03;;;;;;;1999.90;999.90;;;0.40;99.90;;;;;;5020922;28;20190;-82
2021/01/11 01:13:29;;;;;;;1999.90;999.90;;;0.40;99.90;;;;;;5002654;28;20416;-82
2021/01/11 01:15:54;;;;;;;1999.90;999.90;;;0.40;99.90;;;;;;5020602;28;20173;-83
2021/01/11 01:18:23;;;;;;;1999.90;999.90;;;0.40;99.90;;;;;;5020981;28;20265;-83
2021/01/11 01:20:48;;;;;;;1999.90;999.90;;;0.40;99.90;;;;;;5003157;28;20178;-83
2021/01/11 01:23:14;;;;;;;1999.90;999.90;;;0.40;99.90;;;;;;5021050;28;20158;-83
2021/01/11 01:25:40;;;;;;;1999.90;999.90;;;0.40;99.90;;;;;;5020907;28;20208;-82
2021/01/11 01:28:07;;;;;;;1999.90;999.90;;;0.50;99.90;;;;;;5002789;28;20174;-83
2021/01/11 01:30:32;;;;;;;1999.90;999.90;;;0.50;99.90;;;;;;5002874;28;20225;-82
2021/01/11 01:32:59;;;;;;;1999.90;999.90;;;0.60;99.90;;;;;;5020417;28;20569;-82
2021/01/11 01:35:25;;;;;;;1999.90;999.90;;;0.60;99.90;;;;;;5020658;28;20256;-82
2021/01/11 01:37:51;;;;;;;1999.90;999.90;;;0.70;99.90;;;;;;5002261;28;20579;-83
2021/01/11 01:40:17;;;;;;;1999.90;999.90;;;0.70;99.90;;;;;;5020913;28;20165;-83
2021/01/11 01:42:42;;;;;;;1999.90;999.90;;;0.70;99.90;;;;;;5002780;28;20413;-83
2021/01/11 01:45:08;;;;;;;1999.90;999.90;;;0.70;99.90;;;;;;5001859;28;20471;-83
2021/01/11 01:47:35;;;;;;;1999.90;999.90;;;0.70;99.90;;;;;;5019855;28;20249;-82
2021/01/11 01:50:04;;;;;;;1999.90;999.90;;;0.70;99.90;;;;;;5019978;28;20412;-82
2021/01/11 01:52:30;;;;;;;1999.90;999.90;;;0.70;99.90;;;;;;5020220;28;20162;-82
2021/01/11 01:54:56;;;;;;;1999.90;999.90;;;0.70;99.90;;;;;;5019860;28;20164;-83
2021/01/11 01:57:21;;;;;;;1999.90;999.90;;;0.70;99.90;;;;;;5020181;28;20172;-82
2021/01/11 01:59:49;;;;;;;1999.90;999.90;;;0.70;99.90;;;;;;5001621;28;20174;-82
2021/01/11 02:02:18;;;;;;;1999.90;999.90;;;0.80;99.90;;;;;;5002014;28;20166;-83
2021/01/11 02:04:44;;;;;;;1999.90;999.90;;;0.80;99.90;;;;;;5019845;28;20170;-83
2021/01/11 02:07:33;;;;;;;1999.90;999.90;;;0.80;99.90;;;;;;5002959;28;20173;-83
2021/01/11 02:10:06;;;;;;;1999.90;999.90;;;0.80;99.90;;;;;;5019987;28;20644;-83
2021/01/11 02:12:47;;;;;;;1999.90;999.90;;;0.90;99.90;;;;;;5002132;28;20189;-83
2021/01/11 02:15:16;;;;;;;1999.90;999.90;;;0.90;99.90;;;;;;5019343;28;20204;-83
2021/01/11 02:17:59;;;;;;;1999.90;999.90;;;0.90;99.90;;;;;;5019272;28;20189;-82
2021/01/11 02:21:04;;;;;;;1999.90;999.90;;;0.90;99.90;;;;;;5019150;28;20185;-83
2021/01/11 02:23:50;;;;;;;1999.90;999.90;;;0.90;99.90;;;;;;5001294;28;20648;-83
2021/01/11 02:26:56;;;;;;;1999.90;999.90;;;0.90;99.90;;;;;;5020071;28;20161;-82
2021/01/11 02:29:36;;;;;;;1999.90;999.90;;;0.90;99.90;;;;;;4990757;28;20264;-83
2021/01/11 02:32:01;;;;;;;1999.90;999.90;;;0.90;99.90;;;;;;5019428;28;20185;-82
2021/01/11 02:34:29;;;;;;;1999.90;999.90;;;0.90;99.90;;;;;;5018920;28;20185;-82
2021/01/11 02:36:55;;;;;;;1999.90;999.90;;;0.90;99.90;;;;;;5000241;28;20166;-83
2021/01/11 02:39:21;;;;;;;1999.90;999.90;;;0.90;99.90;;;;;;5019376;28;20530;-82
2021/01/11 02:41:47;;;;;;;1999.90;999.90;;;0.90;99.90;;;;;;5001221;28;20181;-83
2021/01/11 02:44:13;;;;;;;1999.90;999.90;;;0.90;99.90;;;;;;5018883;28;20173;-84
2021/01/11 02:46:38;;;;;;;1999.90;999.90;;;0.90;99.90;;;;;;5001722;28;20239;-83
2021/01/11 02:49:14;;;;;;;1999.90;999.90;;;0.90;99.90;;;;;;5019122;28;20600;-83
2021/01/11 02:51:58;;;;;;;1999.90;999.90;;;0.90;99.90;;;;;;5088057;23;20584;-83
2021/01/11 02:54:33;;;;;;;1999.90;999.90;;;0.80;99.90;;;;;;5017894;28;20162;-83
2021/01/11 02:57:14;;;;;;;1999.90;999.90;;;0.90;99.90;;;;;;5018620;28;20146;-83
2021/01/11 02:59:43;;;;;;;1999.90;999.90;;;0.90;99.90;;;;;;5018729;28;20156;-83
2021/01/11 03:02:11;;;;;;;1999.90;999.90;;;0.90;99.90;;;;;;5018899;28;20166;-83
2021/01/11 03:04:38;;;;;;;1999.90;999.90;;;0.90;99.90;;;;;;5018911;28;20240;-83
2021/01/11 03:07:42;;;;;;;1999.90;999.90;;;0.90;99.90;;;;;;5084572;23;20686;-81
2021/01/11 03:10:27;;;;;;;1999.90;999.90;;;0.80;99.90;;;;;;5017555;28;20255;-81
2021/01/11 03:12:56;;;;;;;1999.90;999.90;;;0.70;99.90;;;;;;5000683;28;20292;-82
2021/01/11 03:15:49;;;;;;;;;;;;;;;;;;;;;
2021/01/11 03:22:03;;;;;;;1999.90;999.90;;;0.70;99.90;;;;;;5010220;28;20649;-82
2021/01/11 03:24:46;;;;;;;1999.90;999.90;;;0.70;99.90;;;;;;5016307;28;20188;-81
2021/01/11 03:27:27;;;;;;;1999.90;999.90;;;0.60;99.90;;;;;;5000378;28;20192;-80
2021/01/11 03:30:34;;;;;;;1999.90;999.90;;;0.50;99.90;;;;;;5017587;28;20166;-81
2021/01/11 03:33:37;;;;;;;;;;;;;;;;;;;;;
2021/01/11 03:36:12;;;;;;;1999.90;999.90;;;0.50;99.90;;;;;;4977098;28;20175;-81
2021/01/11 03:39:20;;;;;;;1999.90;999.90;;;0.60;99.90;;;;;;4977294;28;20175;-81
2021/01/11 03:42:02;;;;;;;1999.90;999.90;;;0.70;99.90;;;;;;4965148;28;20269;-82
2021/01/11 03:44:48;;;;;;;1999.90;999.90;;;0.70;99.90;;;;;;5000179;28;20164;-81
2021/01/11 03:47:22;;;;;;;1999.90;999.90;;;0.70;99.90;;;;;;5000026;28;20581;-82
2021/01/11 03:51:06;;;;;;;1999.90;999.90;;;0.70;99.90;;;;;;5017286;28;20147;-82
2021/01/11 03:53:26;;;;;;;1999.90;999.90;;;0.70;99.90;;;;;;5007094;28;20174;-81
2021/01/11 03:56:08;;;;;;;1999.90;999.90;;;0.70;99.90;;;;;;4999667;28;20200;-82
2021/01/11 03:59:26;;;;;;;;;;;;;;;;;;;;;
2021/01/11 04:02:16;;;;;;;1999.90;999.90;;;0.70;99.90;;;;;;4977129;28;20181;-82
2021/01/11 04:05:01;;;;;;;1999.90;999.90;;;0.70;99.90;;;;;;4976497;28;20303;-81
2021/01/11 04:07:35;;;;;;;1999.90;999.90;;;0.70;99.90;;;;;;5016782;28;20753;-82
2021/01/11 04:10:22;;;;;;;1999.90;999.90;;;0.70;99.90;;;;;;5021745;28;20170;-81
2021/01/11 04:12:53;;;;;;;1999.90;999.90;;;0.80;99.90;;;;;;5021677;28;20146;-82
2021/01/11 04:15:22;;;;;;;1999.90;999.90;;;0.70;99.90;;;;;;5020898;28;20166;-81
2021/01/11 04:18:16;;;;;;;1999.90;999.90;;;0.70;99.90;;;;;;5003851;28;20166;-82
2021/01/11 04:21:42;;;;;;;1999.90;999.90;;;0.70;99.90;;;;;;5003317;28;20174;-82
2021/01/11 04:24:31;;;;;;;1999.90;999.90;;;0.70;99.90;;;;;;5009424;28;20188;-81
2021/01/11 04:27:30;;;;;;;1999.90;999.90;;;0.60;99.90;;;;;;5013983;28;20189;-82
2021/01/11 04:30:47;;;;;;;;;;;;;;;;;;;;;
2021/01/11 04:33:50;;;;;;;1999.90;999.90;;;0.50;99.90;;;;;;5015604;28;20704;-82
2021/01/11 04:36:49;;;;;;;1999.90;999.90;;;0.50;99.90;;;;;;5022146;28;20173;-82
2021/01/11 04:39:16;;;;;;;1999.90;999.90;;;0.50;99.90;;;;;;5021930;28;20228;-82
2021/01/11 04:42:03;;;;;;;1999.90;999.90;;;0.50;99.90;;;;;;5021393;28;20240;-81
2021/01/11 04:44:57;;;;;;;1999.90;999.90;;;0.50;99.90;;;;;;5021834;28;20165;-81
2021/01/11 04:47:46;;;;;;;;;;;;;;;;;;;;;
2021/01/11 04:50:41;;;;;;;1999.90;999.90;;;0.50;99.90;;;;;;5021110;28;20284;-82
2021/01/11 04:53:12;;;;;;;1999.90;999.90;;;0.50;99.90;;;;;;5003384;28;20209;-81
2021/01/11 04:55:51;;;;;;;;;;;;;;;;;;;;;
2021/01/11 04:59:02;;;;;;;1999.90;999.90;;;0.40;99.90;;;;;;5020271;28;20241;-82
2021/01/11 05:01:50;;;;;;;1999.90;999.90;;;0.40;99.90;;;;;;5020538;28;20154;-81
2021/01/11 05:04:41;;;;;;;1999.90;999.90;;;0.30;99.90;;;;;;5002430;28;20213;-81
2021/01/11 05:07:37;;;;;;;1999.90;999.90;;;0.30;99.90;;;;;;5020554;28;20588;-81
2021/01/11 05:10:27;;;;;;;1999.90;999.90;;;0.30;99.90;;;;;;4979037;28;20197;-81
2021/01/11 05:13:24;;;;;;;;;;;;;;;;;;;;;
2021/01/11 05:16:12;;;;;;;1999.90;999.90;;;0.20;99.90;;;;;;4978738;28;20179;-81
2021/01/11 05:19:02;;;;;;;1999.90;999.90;;;0.20;99.90;;;;;;4962717;28;20263;-81
2021/01/11 05:22:05;;;;;;;1999.90;999.90;;;0.10;99.90;;;;;;4977622;28;20175;-81
2021/01/11 05:24:53;;;;;;;1999.90;999.90;;;0.00;99.90;;;;;;4968926;28;20191;-81
2021/01/11 05:27:57;;;;;;;1999.90;999.90;;;-0.10;99.90;;;;;;4978264;28;20199;-82
2021/01/11 05:30:33;;;;;;;1999.90;999.90;;;-0.10;99.90;;;;;;4944718;28;20269;-81
2021/01/11 05:33:33;;;;;;;1999.90;999.90;;;-0.10;99.90;;;;;;4978139;28;20258;-82
2021/01/11 05:36:14;;;;;;;1999.90;999.90;;;-0.20;99.90;;;;;;4963498;28;20179;-81
2021/01/11 05:38:55;;;;;;;1999.90;999.90;;;-0.20;99.90;;;;;;4962492;28;20186;-82
2021/01/11 05:41:30;;;;;;;1999.90;999.90;;;-0.20;99.90;;;;;;5015512;28;20236;-82
2021/01/11 05:44:47;;;;;;;1999.90;999.90;;;-0.20;99.90;;;;;;5019176;28;20623;-81
2021/01/11 05:47:58;;;;;;;1999.90;999.90;;;-0.30;99.90;;;;;;4977966;28;20226;-80
2021/01/11 05:51:06;;;;;;;1999.90;999.90;;;-0.20;99.90;;;;;;4977772;28;20314;-81
2021/01/11 05:53:40;;;;;;;1999.90;999.90;;;-0.30;99.90;;;;;;4977468;28;20205;-81
2021/01/11 05:56:16;;;;;;;1999.90;999.90;;;-0.20;99.90;;;;;;4978346;28;20217;-82
2021/01/11 05:59:27;;;;;;;1999.90;999.90;;;-0.20;99.90;;;;;;5003527;28;20276;-81
2021/01/11 06:02:38;;;;;;;1999.90;999.90;;;-0.20;99.90;;;;;;5018852;28;20173;-81
2021/01/11 06:05:22;;;;;;;1999.90;999.90;;;-0.30;99.90;;;;;;5018810;28;20178;-81
2021/01/11 06:08:09;;;;;;;;;;;;;;;;;;;;;
2021/01/11 06:11:08;;;;;;;1999.90;999.90;;;-0.30;99.90;;;;;;5003626;28;20219;-82
2021/01/11 06:14:26;;;;;;;1999.90;999.90;;;-0.40;99.90;;;;;;4998216;28;20172;-82
2021/01/11 06:17:08;;;;;;;1999.90;999.90;;;-0.30;99.90;;;;;;5001204;28;20180;-82
2021/01/11 06:19:45;;;;;;;1999.90;999.90;;;-0.40;99.90;;;;;;4986966;28;20200;-81
2021/01/11 06:22:25;;;;;;;1999.90;999.90;;;-0.40;99.90;;;;;;5018617;28;20193;-82
2021/01/11 06:25:32;;;;;;;1999.90;999.90;;;-0.40;99.90;;;;;;4999949;28;20546;-82
2021/01/11 06:28:11;;;;;;;1999.90;999.90;;;-0.40;99.90;;;;;;5017736;28;20173;-79
2021/01/11 06:30:53;;;;;;;1999.90;999.90;;;-0.40;99.90;;;;;;5017621;28;20276;-82
2021/01/11 06:33:46;;;;;;;1999.90;999.90;;;-0.50;99.90;;;;;;5018178;28;20189;-82
2021/01/11 06:36:42;;;;;;;1999.90;999.90;;;-0.50;99.90;;;;;;5018289;28;20208;-82
2021/01/11 06:39:38;;;;;;;1999.90;999.90;;;-0.50;99.90;;;;;;5018362;28;20623;-81
2021/01/11 06:42:22;;;;;;;1999.90;999.90;;;-0.40;99.90;;;;;;5000812;28;20279;-81
2021/01/11 06:44:58;;;;;;;1999.90;999.90;;;-0.40;99.90;;;;;;5017618;28;20182;-82
2021/01/11 06:47:32;;;;;;;1999.90;999.90;;;-0.40;99.90;;;;;;5018185;28;20173;-82
2021/01/11 06:50:33;;;;;;;1999.90;999.90;;;-0.40;99.90;;;;;;4999748;28;20201;-81
2021/01/11 06:56:49;;;;;;;1999.90;999.90;;;-0.40;99.90;;;;;;5018456;28;20273;-80
2021/01/11 06:59:35;;;;;;;1999.90;999.90;;;-0.50;99.90;;;;;;4952061;28;20182;-82
2021/01/11 07:02:34;;;;;;;1999.90;999.90;;;-0.40;99.90;;;;;;4966022;28;20178;-81
2021/01/11 07:05:54;;;;;;;1999.90;999.90;;;-0.50;99.90;;;;;;5018885;28;20177;-82
2021/01/11 07:08:46;;;;;;;1999.90;999.90;;;-0.50;99.90;;;;;;4994800;28;20228;-82
2021/01/11 07:12:11;;;;;;;1999.90;999.90;;;-0.50;99.90;;;;;;5018259;28;20205;-82
2021/01/11 07:22:04;;;;;;;;;;;;;;;;;;;;;
2021/01/11 07:32:06;;;;;;;1999.90;999.90;;;-0.50;99.90;;;;;;4920055;29;20209;-82
2021/01/11 07:35:34;;;;;;;;;;;;;;;;;;;;;
2021/01/11 07:38:43;;;;;;;1999.90;999.90;;;-0.60;99.90;;;;;;4917645;29;20240;-82
2021/01/11 07:42:04;;;;;;;1999.90;999.90;;;-0.50;99.90;;;;;;4940688;28;20518;-81
2021/01/11 07:45:01;;;;;;;1999.90;999.90;;;-0.50;99.90;;;;;;4941197;29;20680;-82
2021/01/11 07:48:32;;;;;;;;;;;;;;;;;;;;;
2021/01/11 07:51:52;;;;;;;1999.90;999.90;;;-0.50;99.90;;;;;;4948187;29;20197;-82
2021/01/11 07:54:49;;;;;;;1999.90;999.90;;;-0.40;99.90;;;;;;4967558;28;20170;-82
2021/01/11 08:01:22;;;;;;;1999.90;999.90;;;-0.40;99.90;;;;;;4905202;29;20181;-82
2021/01/11 08:04:00;;;;;;;1999.90;999.90;;;-0.30;99.90;;;;;;4999206;28;20284;-81
2021/01/11 08:10:18;;;;;;;1999.90;999.90;;;-0.20;99.90;;;;;;4937470;29;20196;-81
2021/01/11 08:16:44;;;;;;;1999.90;999.90;;;-0.20;99.90;;;;;;4994861;28;20673;-81
2021/01/11 08:19:42;;;;;;;1999.90;999.90;;;-0.10;99.90;;;;;;5004862;28;20182;-81
2021/01/11 08:22:51;;;;;;;1999.90;999.90;;;-0.10;99.90;;;;;;4997236;28;20254;-81
2021/01/11 08:25:30;;;;;;;1999.90;999.90;;;0.00;99.90;;;;;;5012750;28;20182;-81
2021/01/11 08:27:57;;;;;;;1999.90;999.90;;;0.00;99.90;;;;;;4999459;28;20170;-81
2021/01/11 08:30:33;;;;;;;1999.90;999.90;;;-0.10;99.90;;;;;;4992524;28;20194;-80
2021/01/11 08:33:25;;;;;;;1999.90;999.90;;;0.00;99.90;;;;;;4998637;28;20166;-80
2021/01/11 08:36:14;;;;;;;1999.90;999.90;;;0.20;99.90;;;;;;5013836;28;20549;-81
2021/01/11 08:39:46;;;;;;;1999.90;999.90;;;0.10;99.90;;;;;;4998845;28;20174;-81
2021/01/11 08:43:08;;;;;;;1999.90;999.90;;;0.10;99.90;;;;;;4968903;28;20178;-80
2021/01/11 08:45:40;;;;;;;1999.90;999.90;;;0.20;99.90;;;;;;4975676;28;20702;-81
2021/01/11 08:48:16;;;;;;;1999.90;999.90;;;0.20;99.90;;;;;;4972392;28;20231;-81
2021/01/11 08:50:57;;;;;;;1999.90;999.90;;;0.20;99.90;;;;;;5016819;28;20193;-81
2021/01/11 08:57:27;;;;;;;;;;;;;;;;;;;;;
2021/01/11 09:00:42;;;;;;;;;;;;;;;;;;;;;
2021/01/11 09:03:23;;;;;;;1999.90;999.90;;;0.30;99.90;;;;;;4923030;29;20183;-81
2021/01/11 09:05:56;;;;;;;1999.90;999.90;;;0.40;99.90;;;;;;5013905;28;20260;-81
2021/01/11 09:08:38;;;;;;;1999.90;999.90;;;0.40;99.90;;;;;;5020010;28;20173;-81
2021/01/11 09:11:22;;;;;;;1999.90;999.90;;;0.40;99.90;;;;;;5002928;28;20186;-81
2021/01/11 09:14:16;;;;;;;1999.90;999.90;;;0.40;99.90;;;;;;5019559;28;20494;-81
2021/01/11 09:17:05;;;;;;;1999.90;999.90;;;0.40;99.90;;;;;;5019042;28;20166;-81
2021/01/11 09:19:32;;;;;;;1999.90;999.90;;;0.40;99.90;;;;;;5018516;28;20180;-81
2021/01/11 09:22:39;;;;;;;1999.90;999.90;;;0.30;99.90;;;;;;5003250;28;20181;-81
2021/01/11 09:25:19;;;;;;;1999.90;999.90;;;0.40;99.90;;;;;;5002052;28;20240;-81
2021/01/11 09:27:52;;;;;;;1999.90;999.90;;;0.40;99.90;;;;;;5003062;28;20838;-81
2021/01/11 09:30:50;;;;;;;1999.90;999.90;;;0.40;99.90;;;;;;5003294;28;20273;-81
2021/01/11 09:33:50;;;;;;;1999.90;999.90;;;0.40;99.90;;;;;;5002289;28;20189;-81
2021/01/11 09:36:39;;;;;;;1999.90;999.90;;;0.40;99.90;;;;;;4999770;28;20183;-80
2021/01/11 09:39:26;;;;;;;1999.90;999.90;;;0.40;99.90;;;;;;5019860;28;20156;-81
2021/01/11 09:45:36;;;;;;;1999.90;999.90;;;0.50;99.90;;;;;;5010822;28;20178;-81
2021/01/11 09:48:03;;;;;;;1999.90;999.90;;;0.50;99.90;;;;;;5001593;28;20213;-81
2021/01/11 09:50:41;;;;;;;1999.90;999.90;;;0.50;99.90;;;;;;5019190;28;20269;-81
2021/01/11 09:53:59;;;;;;;1999.90;999.90;;;0.60;99.90;;;;;;4999164;28;20177;-80
2021/01/11 09:59:55;;;;;;;1999.90;999.90;;;0.70;99.90;;;;;;5019099;28;20194;-81
2021/01/11 10:02:27;;;;;;;1999.90;999.90;;;0.90;99.90;;;;;;4998888;28;20205;-80
2021/01/11 10:05:04;;;;;;;1999.90;999.90;;;1.00;99.90;;;;;;5000445;28;20166;-80
2021/01/11 10:11:19;;;;;;;1999.90;999.90;;;1.20;99.90;;;;;;4939863;29;20213;-81
2021/01/11 10:13:47;;;;;;;1999.90;999.90;;;1.30;99.90;;;;;;4938596;29;20191;-80
2021/01/11 10:16:24;;;;;;;1999.90;999.90;;;1.30;99.90;;;;;;4939134;29;20171;-81
2021/01/11 10:19:01;;;;;;;1999.90;999.90;;;1.40;99.90;;;;;;4940275;29;20153;-80
2021/01/11 10:21:28;;;;;;;1999.90;999.90;;;1.40;99.90;;;;;;4939487;29;20180;-82
2021/01/11 10:24:05;;;;;;;1999.90;999.90;;;1.40;99.90;;;;;;4955581;28;20176;-80
2021/01/11 10:26:34;;;;;;;1999.90;999.90;;;1.40;99.90;;;;;;4960866;28;20235;-80
2021/01/11 10:29:18;;;;;;;1999.90;999.90;;;1.50;99.90;;;;;;5001673;28;20216;-79
2021/01/11 10:32:13;;;;;;;;;;;;;;;;;;;;;
2021/01/11 10:34:39;;;;;;;1999.90;999.90;;;1.70;99.90;;;;;;5001080;28;20269;-80
2021/01/11 10:37:49;;;;;;;1999.90;999.90;;;1.70;99.90;;;;;;5018532;28;20201;-81
2021/01/11 10:40:20;;;;;;;1999.90;999.90;;;1.80;99.90;;;;;;5000560;28;20864;-79
2021/01/11 10:43:04;;;;;;;1999.90;999.90;;;1.80;99.90;;;;;;5001279;28;20162;-81
2021/01/11 10:45:37;;;;;;;1999.90;999.90;;;1.90;99.90;;;;;;5018394;28;20227;-80
2021/01/11 10:48:54;;;;;;;;;;;;;;;;;;;;;
2021/01/11 10:51:42;;;;;;;;;;;;;;;;;;;;;
2021/01/11 10:54:30;;;;;;;1999.90;999.90;;;2.00;99.90;;;;;;5018615;28;20230;-80
2021/01/11 10:57:19;;;;;;;1999.90;999.90;;;2.00;99.90;;;;;;5007051;28;20208;-80
2021/01/11 11:00:01;;;;;;;1999.90;999.90;;;2.10;99.90;;;;;;5001461;28;20561;-80
2021/01/11 11:02:44;;;;;;;1999.90;999.90;;;2.10;99.90;;;;;;4999991;28;20257;-80
2021/01/11 11:08:44;;;;;;;;;;;;;;;;;;;;;
2021/01/11 11:18:30;;;;;;;1999.90;999.90;;;2.10;99.90;;;;;;4881645;29;20212;-81
2021/01/11 11:21:23;;;;;;;;;;;;;;;;;;;;;
2021/01/11 11:24:27;;;;;;;1999.90;999.90;;;2.10;99.90;;;;;;4936948;29;20269;-81
2021/01/11 11:27:08;;;;;;;1999.90;999.90;;;2.10;99.90;;;;;;5018213;28;20184;-81
2021/01/11 11:29:54;;;;;;;1999.90;999.90;;;2.00;99.90;;;;;;5000538;28;20596;-81
2021/01/11 11:32:30;;;;;;;1999.90;999.90;;;2.00;99.90;;;;;;5000196;28;20230;-80
2021/01/11 11:35:17;;;;;;;1999.90;999.90;;;2.00;99.90;;;;;;5016950;28;20180;-81
2021/01/11 11:38:21;;;;;;;1999.90;999.90;;;1.90;99.90;;;;;;4995330;28;20184;-80
2021/01/11 11:41:44;;;;;;;;;;;;;;;;;;;;;
2021/01/11 11:44:35;;;;;;;1999.90;999.90;;;1.90;99.90;;;;;;5011347;28;20243;-80
2021/01/11 11:47:23;;;;;;;1999.90;999.90;;;1.90;99.90;;;;;;5000312;28;20188;-80
2021/01/11 11:50:39;;;;;;;1999.90;999.90;;;1.80;99.90;;;;;;4998471;28;20181;-80
2021/01/11 11:57:09;;;;;;;1999.90;999.90;;;1.80;99.90;;;;;;4986278;28;20188;-81
2021/01/11 12:00:00;;;;;;;1999.90;999.90;;;1.80;99.90;;;;;;5017325;28;20162;-81
2021/01/11 12:05:28;;;;;;;1999.90;999.90;;;1.90;99.90;;;;;;4937858;29;20705;-82
2021/01/11 12:08:09;;;;;;;1999.90;999.90;;;1.90;99.90;;;;;;4994998;28;20510;-82
2021/01/11 12:10:53;;;;;;;1999.90;999.90;;;1.90;99.90;;;;;;5018327;28;20193;-81
2021/01/11 12:13:36;;;;;;;1999.90;999.90;;;1.90;99.90;;;;;;5015922;28;20166;-82
2021/01/11 12:16:23;;;;;;;1999.90;999.90;;;2.00;99.90;;;;;;5016838;28;20181;-81
2021/01/11 12:18:58;;;;;;;1999.90;999.90;;;2.00;99.90;;;;;;5017229;28;20158;-82
2021/01/11 12:21:40;;;;;;;1999.90;999.90;;;2.00;99.90;;;;;;5017493;28;20150;-80
2021/01/11 12:24:09;;;;;;;1999.90;999.90;;;2.10;99.90;;;;;;4999460;28;20193;-80
2021/01/11 12:26:46;;;;;;;1999.90;999.90;;;2.10;99.90;;;;;;5017782;28;20151;-80
2021/01/11 12:29:36;;;;;;;1999.90;999.90;;;2.10;99.90;;;;;;5002850;28;20273;-77
2021/01/11 12:35:03;;;;;;;1999.90;999.90;;;2.20;99.90;;;;;;5021485;28;20194;-81
2021/01/11 12:37:54;;;;;;;1999.90;999.90;;;2.30;99.90;;;;;;5021206;28;20214;-82
2021/01/11 12:41:04;;;;;;;;;;;;;;;;;;;;;
2021/01/11 12:44:18;;;;;;;1999.90;999.90;;;2.30;99.90;;;;;;5021166;28;20276;-82
2021/01/11 12:46:42;;;;;;;1999.90;999.90;;;2.30;99.90;;;;;;5010308;28;20196;-82
2021/01/11 12:49:29;;;;;;;;;;;;;;;;;;;;;
2021/01/11 12:52:00;;;;;;;1999.90;999.90;;;2.40;99.90;;;;;;5021029;28;20194;-81
2021/01/11 12:54:28;;;;;;;1999.90;999.90;;;2.40;99.90;;;;;;5003199;28;20266;-81
2021/01/11 12:56:59;;;;;;;1999.90;999.90;;;2.30;99.90;;;;;;5021070;28;20165;-79
2021/01/11 12:59:36;;;;;;;1999.90;999.90;;;2.30;99.90;;;;;;5003272;28;20248;-80
2021/01/11 13:05:58;;;;;;;1999.90;999.90;;;2.40;99.90;;;;;;4980402;28;20182;-79
2021/01/11 13:08:54;;;;;;;1999.90;999.90;;;2.40;99.90;;;;;;4981229;28;20270;-80
2021/01/11 13:11:22;;;;;;;1999.90;999.90;;;2.50;99.90;;;;;;4962814;28;20210;-81
2021/01/11 13:14:26;;;;;;;1999.90;999.90;;;2.50;99.90;;;;;;4983945;28;20179;-80
2021/01/11 13:17:45;;;;;;;;;;;;;;;;;;;;;
2021/01/11 13:20:39;;;;;;;;;;;;;;;;;;;;;
2021/01/11 13:23:17;;;;;;;1999.90;999.90;;;2.60;99.90;;;;;;5021918;28;20240;-82
2021/01/11 13:26:00;;;;;;;;;;;;;;;;;;;;;
2021/01/11 13:28:32;;;;;;;1999.90;999.90;;;2.70;99.90;;;;;;5020870;28;20229;-81
2021/01/11 13:32:05;;;;;;;1999.90;999.90;;;2.70;99.90;;;;;;5018200;28;20267;-82
2021/01/11 13:34:46;;;;;;;1999.90;999.90;;;2.70;99.90;;;;;;4978190;28;20181;-81
2021/01/11 13:37:21;;;;;;;1999.90;999.90;;;2.70;99.90;;;;;;5018967;28;20166;-82
2021/01/11 13:40:35;;;;;;;1999.90;999.90;;;2.70;99.90;;;;;;5002697;28;20192;-81
2021/01/11 13:43:03;;;;;;;1999.90;999.90;;;2.70;99.90;;;;;;5019571;28;20182;-81
2021/01/11 13:48:52;;;;;;;1999.90;999.90;;;2.70;99.90;;;;;;4983036;28;20539;-82
2021/01/11 13:51:38;;;;;;;1999.90;999.90;;;2.80;99.90;;;;;;5002397;28;20194;-82
2021/01/11 13:54:10;;;;;;;1999.90;999.90;;;2.80;99.90;;;;;;5002597;28;20158;-82
2021/01/11 13:56:45;;;;;;;1999.90;999.90;;;2.80;99.90;;;;;;5003145;28;20194;-82
2021/01/11 13:59:16;;;;;;;1999.90;999.90;;;2.90;99.90;;;;;;5021653;28;20185;-82
2021/01/11 14:01:50;;;;;;;1999.90;999.90;;;2.90;99.90;;;;;;5003058;28;20185;-81
2021/01/11 14:04:32;;;;;;;1999.90;999.90;;;2.90;99.90;;;;;;5003000;28;20188;-82
2021/01/11 14:07:07;;;;;;;1999.90;999.90;;;2.90;99.90;;;;;;5003012;28;20180;-81
2021/01/11 14:09:36;;;;;;;1999.90;999.90;;;2.80;99.90;;;;;;5002448;28;20185;-82
2021/01/11 14:12:10;;;;;;;1999.90;999.90;;;2.80;99.90;;;;;;5002535;28;20197;-82
2021/01/11 14:15:01;;;;;;;1999.90;999.90;;;2.80;99.90;;;;;;5002758;28;20177;-81
2021/01/11 14:17:29;;;;;;;1999.90;999.90;;;2.90;99.90;;;;;;5018321;28;20233;-82
2021/01/11 14:19:58;;;;;;;1999.90;999.90;;;2.90;99.90;;;;;;5001700;28;20178;-81
2021/01/11 14:23:02;;;;;;;1999.90;999.90;;;2.90;99.90;;;;;;5001938;28;20182;-81
2021/01/11 14:25:28;;;;;;;1999.90;999.90;;;2.90;99.90;;;;;;5019299;28;20173;-81
2021/01/11 14:28:06;;;;;;;1999.90;999.90;;;3.00;99.90;;;;;;5003204;28;20174;-81
2021/01/11 14:30:38;;;;;;;1999.90;999.90;;;3.00;99.90;;;;;;5020125;28;20660;-81
2021/01/11 14:33:04;;;;;;;1999.90;999.90;;;3.00;99.90;;;;;;5001293;28;20178;-82
2021/01/11 14:35:37;;;;;;;1999.90;999.90;;;3.10;99.90;;;;;;5002666;28;20162;-81
2021/01/11 14:38:13;;;;;;;1999.90;999.90;;;3.20;99.90;;;;;;5001013;28;20177;-81
2021/01/11 14:40:48;;;;;;;1999.90;999.90;;;3.30;99.90;;;;;;5019327;28;20169;-82
2021/01/11 14:43:26;;;;;;;1999.90;999.90;;;3.20;99.90;;;;;;5019344;28;20221;-81
2021/01/11 14:45:53;;;;;;;1999.90;999.90;;;3.20;99.90;;;;;;5002566;28;20178;-81
2021/01/11 14:48:22;;;;;;;1999.90;999.90;;;3.30;99.90;;;;;;5017361;28;20194;-82
2021/01/11 14:50:59;;;;;;;1999.90;999.90;;;3.30;99.90;;;;;;5001416;28;20229;-81
2021/01/11 14:53:27;;;;;;;1999.90;999.90;;;3.20;99.90;;;;;;5019577;28;20636;-81
2021/01/11 14:55:56;;;;;;;1999.90;999.90;;;3.30;99.90;;;;;;5020027;28;20212;-82
2021/01/11 14:58:51;;;;;;;1999.90;999.90;;;3.30;99.90;;;;;;5001124;28;20165;-82
2021/01/11 15:01:53;;;;;;;1999.90;999.90;;;3.30;99.90;;;;;;5001764;28;20173;-81
2021/01/11 15:04:48;;;;;;;1999.90;999.90;;;3.40;99.90;;;;;;5001925;28;20185;-81
2021/01/11 15:07:26;;;;;;;1999.90;999.90;;;3.40;99.90;;;;;;5000827;28;20548;-81
2021/01/11 15:09:56;;;;;;;1999.90;999.90;;;3.40;99.90;;;;;;5018813;28;20177;-82
2021/01/11 15:12:25;;;;;;;1999.90;999.90;;;3.50;99.90;;;;;;5018073;28;20209;-82